sensor_id;sensor_type;location;lat;lon;timestamp;pressure;altitude;pressure_sealevel;temperature;humidity
80323;BME280;69636;52.372;13.610;2023-05-31T00:00:21;102243.97;;;12.91;62.55
80323;BME280;69636;52.372;13.610;2023-05-31T00:02:48;102237.38;;;12.74;63.51
80323;BME280;69636;52.372;13.610;2023-05-31T00:05:16;102246.97;;;12.56;64.20
80323;BME280;69636;52.372;13.610;2023-05-31T00:07:44;102242.94;;;12.62;63.57
80323;BME280;69636;52.372;13.610;2023-05-31T00:10:11;102243.84;;;12.51;64.29
80323;BME280;69636;52.372;13.610;2023-05-31T00:12:39;102245.91;;;12.47;64.60
80323;BME280;69636;52.372;13.610;2023-05-31T00:15:07;102245.13;;;12.36;64.99
80323;BME280;69636;52.372;13.610;2023-05-31T00:17:37;102250.84;;;12.31;65.62
80323;BME280;69636;52.372;13.610;2023-05-31T00:20:08;102246.03;;;12.25;64.74
80323;BME280;69636;52.372;13.610;2023-05-31T00:22:35;102248.66;;;12.04;66.81
80323;BME280;69636;52.372;13.610;2023-05-31T00:25:03;102250.63;;;11.91;66.94
80323;BME280;69636;52.372;13.610;2023-05-31T00:27:30;102249.16;;;11.98;66.87
80323;BME280;69636;52.372;13.610;2023-05-31T00:29:58;102249.44;;;11.95;67.22
80323;BME280;69636;52.372;13.610;2023-05-31T00:32:25;102251.50;;;11.80;67.34
80323;BME280;69636;52.372;13.610;2023-05-31T00:34:54;102247.28;;;11.67;68.15
80323;BME280;69636;52.372;13.610;2023-05-31T00:37:21;102252.38;;;11.47;69.52
80323;BME280;69636;52.372;13.610;2023-05-31T00:39:48;102256.97;;;11.45;68.66
80323;BME280;69636;52.372;13.610;2023-05-31T00:42:16;102250.91;;;11.54;69.14
80323;BME280;69636;52.372;13.610;2023-05-31T00:44:43;102249.59;;;11.60;68.92
80323;BME280;69636;52.372;13.610;2023-05-31T00:47:11;102249.47;;;11.50;68.79
80323;BME280;69636;52.372;13.610;2023-05-31T00:49:38;102248.25;;;11.66;67.72
80323;BME280;69636;52.372;13.610;2023-05-31T00:52:07;102248.50;;;11.51;68.14
80323;BME280;69636;52.372;13.610;2023-05-31T00:54:36;102248.50;;;11.51;68.44
80323;BME280;69636;52.372;13.610;2023-05-31T00:57:04;102252.03;;;11.41;68.53
80323;BME280;69636;52.372;13.610;2023-05-31T00:59:32;102250.22;;;11.30;69.59
80323;BME280;69636;52.372;13.610;2023-05-31T01:02:02;102254.56;;;11.42;68.92
80323;BME280;69636;52.372;13.610;2023-05-31T01:04:29;102253.84;;;11.40;68.76
80323;BME280;69636;52.372;13.610;2023-05-31T01:06:57;102253.13;;;11.27;70.09
80323;BME280;69636;52.372;13.610;2023-05-31T01:09:25;102255.03;;;11.03;70.65
80323;BME280;69636;52.372;13.610;2023-05-31T01:12:01;102254.56;;;11.09;69.71
80323;BME280;69636;52.372;13.610;2023-05-31T01:14:49;102253.22;;;11.26;69.10
80323;BME280;69636;52.372;13.610;2023-05-31T01:17:25;102254.44;;;11.21;69.09
80323;BME280;69636;52.372;13.610;2023-05-31T01:19:56;102260.38;;;11.25;68.77
80323;BME280;69636;52.372;13.610;2023-05-31T01:22:35;102260.25;;;11.15;69.33
80323;BME280;69636;52.372;13.610;2023-05-31T01:35:29;102262.88;;;10.93;70.10
80323;BME280;69636;52.372;13.610;2023-05-31T01:37:57;102258.53;;;10.81;70.33
80323;BME280;69636;52.372;13.610;2023-05-31T01:40:24;102260.63;;;10.53;72.13
80323;BME280;69636;52.372;13.610;2023-05-31T01:42:52;102262.69;;;10.26;73.30
80323;BME280;69636;52.372;13.610;2023-05-31T01:45:20;102257.91;;;10.31;72.74
80323;BME280;69636;52.372;13.610;2023-05-31T01:47:49;102251.69;;;10.19;73.53
80323;BME280;69636;52.372;13.610;2023-05-31T01:50:18;102250.50;;;10.24;72.82
80323;BME280;69636;52.372;13.610;2023-05-31T01:52:47;102255.88;;;10.35;72.14
80323;BME280;69636;52.372;13.610;2023-05-31T01:55:15;102250.72;;;10.20;73.19
80323;BME280;69636;52.372;13.610;2023-05-31T01:57:43;102245.91;;;10.02;73.78
80323;BME280;69636;52.372;13.610;2023-05-31T02:00:12;102245.81;;;10.03;73.46
80323;BME280;69636;52.372;13.610;2023-05-31T02:02:41;102241.59;;;10.25;72.33
80323;BME280;69636;52.372;13.610;2023-05-31T02:05:10;102248.50;;;10.14;73.49
80323;BME280;69636;52.372;13.610;2023-05-31T02:07:38;102258.66;;;9.97;73.69
80323;BME280;69636;52.372;13.610;2023-05-31T02:10:08;102256.13;;;9.95;73.58
80323;BME280;69636;52.372;13.610;2023-05-31T02:12:36;102256.00;;;9.97;73.31
80323;BME280;69636;52.372;13.610;2023-05-31T02:15:04;102259.59;;;9.72;74.76
80323;BME280;69636;52.372;13.610;2023-05-31T02:17:32;102254.13;;;9.62;74.93
80323;BME280;69636;52.372;13.610;2023-05-31T02:19:59;102254.97;;;9.63;74.60
80323;BME280;69636;52.372;13.610;2023-05-31T02:22:27;102255.22;;;9.60;75.47
80323;BME280;69636;52.372;13.610;2023-05-31T02:24:55;102251.94;;;9.56;75.39
80323;BME280;69636;52.372;13.610;2023-05-31T02:27:23;102253.41;;;9.47;75.51
80323;BME280;69636;52.372;13.610;2023-05-31T02:29:51;102254.59;;;9.43;75.81
80323;BME280;69636;52.372;13.610;2023-05-31T02:32:18;102254.69;;;9.42;75.97
80323;BME280;69636;52.372;13.610;2023-05-31T02:34:45;102252.47;;;9.36;75.98
80323;BME280;69636;52.372;13.610;2023-05-31T02:37:13;102253.16;;;9.27;76.51
80323;BME280;69636;52.372;13.610;2023-05-31T02:39:40;102251.66;;;9.23;76.49
80323;BME280;69636;52.372;13.610;2023-05-31T02:42:08;102256.97;;;9.35;75.35
80323;BME280;69636;52.372;13.610;2023-05-31T02:44:36;102259.25;;;9.40;74.71
80323;BME280;69636;52.372;13.610;2023-05-31T02:47:04;102249.44;;;9.66;73.72
80323;BME280;69636;52.372;13.610;2023-05-31T02:49:31;102251.53;;;9.73;73.92
80323;BME280;69636;52.372;13.610;2023-05-31T02:51:58;102253.94;;;9.52;75.08
80323;BME280;69636;52.372;13.610;2023-05-31T02:54:26;102253.09;;;9.39;75.65
80323;BME280;69636;52.372;13.610;2023-05-31T02:56:53;102263.22;;;9.22;76.46
80323;BME280;69636;52.372;13.610;2023-05-31T02:59:20;102252.72;;;9.20;76.56
80323;BME280;69636;52.372;13.610;2023-05-31T03:01:49;102246.56;;;9.19;76.55
80323;BME280;69636;52.372;13.610;2023-05-31T03:04:16;102259.72;;;9.21;76.49
80323;BME280;69636;52.372;13.610;2023-05-31T03:06:44;102249.22;;;9.32;76.19
80323;BME280;69636;52.372;13.610;2023-05-31T03:09:11;102252.84;;;9.31;76.06
80323;BME280;69636;52.372;13.610;2023-05-31T03:11:38;102247.44;;;9.20;76.55
80323;BME280;69636;52.372;13.610;2023-05-31T03:14:06;102250.91;;;9.33;75.61
80323;BME280;69636;52.372;13.610;2023-05-31T03:16:34;102250.91;;;9.33;76.00
80323;BME280;69636;52.372;13.610;2023-05-31T03:19:03;102249.34;;;9.18;77.06
80323;BME280;69636;52.372;13.610;2023-05-31T03:21:30;102252.19;;;9.15;76.82
80323;BME280;69636;52.372;13.610;2023-05-31T03:23:59;102250.19;;;9.18;76.50
80323;BME280;69636;52.372;13.610;2023-05-31T03:26:26;102252.50;;;9.23;76.40
80323;BME280;69636;52.372;13.610;2023-05-31T03:28:54;102248.22;;;9.59;74.36
80323;BME280;69636;52.372;13.610;2023-05-31T03:31:21;102256.91;;;9.61;74.62
80323;BME280;69636;52.372;13.610;2023-05-31T03:33:50;102254.56;;;9.56;74.51
80323;BME280;69636;52.372;13.610;2023-05-31T03:36:21;102256.50;;;9.41;75.44
80323;BME280;69636;52.372;13.610;2023-05-31T03:38:48;102246.47;;;9.34;76.16
80323;BME280;69636;52.372;13.610;2023-05-31T03:41:16;102247.19;;;9.36;76.35
80323;BME280;69636;52.372;13.610;2023-05-31T03:43:44;102250.69;;;9.36;76.72
80323;BME280;69636;52.372;13.610;2023-05-31T03:46:11;102249.81;;;9.48;76.52
80323;BME280;69636;52.372;13.610;2023-05-31T03:48:39;102242.16;;;9.57;76.02
80323;BME280;69636;52.372;13.610;2023-05-31T03:51:07;102249.28;;;9.43;77.17
80323;BME280;69636;52.372;13.610;2023-05-31T03:53:35;102246.00;;;9.52;76.82
80323;BME280;69636;52.372;13.610;2023-05-31T03:56:03;102252.69;;;9.45;77.51
80323;BME280;69636;52.372;13.610;2023-05-31T03:58:30;102249.72;;;9.50;77.27
80323;BME280;69636;52.372;13.610;2023-05-31T04:00:57;102249.16;;;9.58;77.04
80323;BME280;69636;52.372;13.610;2023-05-31T04:03:25;102248.44;;;9.79;76.17
80323;BME280;69636;52.372;13.610;2023-05-31T04:05:53;102246.88;;;10.01;75.59
80323;BME280;69636;52.372;13.610;2023-05-31T04:08:20;102258.44;;;10.00;75.53
80323;BME280;69636;52.372;13.610;2023-05-31T04:10:49;102252.00;;;10.15;74.49
80323;BME280;69636;52.372;13.610;2023-05-31T04:13:16;102238.81;;;10.26;74.68
80323;BME280;69636;52.372;13.610;2023-05-31T04:15:43;102248.38;;;10.40;74.37
80323;BME280;69636;52.372;13.610;2023-05-31T04:18:11;102249.38;;;10.39;74.14
80323;BME280;69636;52.372;13.610;2023-05-31T04:20:38;102253.84;;;10.49;73.71
80323;BME280;69636;52.372;13.610;2023-05-31T04:23:05;102247.84;;;10.70;73.22
80323;BME280;69636;52.372;13.610;2023-05-31T04:25:33;102252.00;;;10.85;71.56
80323;BME280;69636;52.372;13.610;2023-05-31T04:28:01;102249.59;;;10.82;70.57
80323;BME280;69636;52.372;13.610;2023-05-31T04:30:29;102247.53;;;10.85;70.56
80323;BME280;69636;52.372;13.610;2023-05-31T04:32:56;102252.41;;;11.14;69.74
80323;BME280;69636;52.372;13.610;2023-05-31T04:35:24;102246.09;;;11.48;68.56
80323;BME280;69636;52.372;13.610;2023-05-31T04:37:51;102254.56;;;11.42;68.56
80323;BME280;69636;52.372;13.610;2023-05-31T04:40:18;102259.13;;;11.63;67.23
80323;BME280;69636;52.372;13.610;2023-05-31T04:42:46;102257.19;;;11.65;66.46
80323;BME280;69636;52.372;13.610;2023-05-31T04:45:14;102249.25;;;12.08;64.59
80323;BME280;69636;52.372;13.610;2023-05-31T04:47:42;102256.66;;;12.25;63.97
80323;BME280;69636;52.372;13.610;2023-05-31T04:50:10;102247.84;;;12.24;63.52
80323;BME280;69636;52.372;13.610;2023-05-31T04:52:37;102248.72;;;12.67;62.76
80323;BME280;69636;52.372;13.610;2023-05-31T04:55:05;102252.09;;;12.89;61.08
80323;BME280;69636;52.372;13.610;2023-05-31T04:57:34;102254.09;;;12.97;61.46
80323;BME280;69636;52.372;13.610;2023-05-31T05:00:02;102256.34;;;13.02;61.60
80323;BME280;69636;52.372;13.610;2023-05-31T05:02:31;102247.50;;;13.22;60.25
80323;BME280;69636;52.372;13.610;2023-05-31T05:04:58;102247.75;;;13.49;59.48
80323;BME280;69636;52.372;13.610;2023-05-31T05:07:26;102245.47;;;13.45;59.64
80323;BME280;69636;52.372;13.610;2023-05-31T05:09:53;102247.94;;;13.67;59.92
80323;BME280;69636;52.372;13.610;2023-05-31T05:12:20;102242.63;;;13.77;60.04
80323;BME280;69636;52.372;13.610;2023-05-31T05:14:47;102237.41;;;14.04;58.92
80323;BME280;69636;52.372;13.610;2023-05-31T05:17:15;102245.72;;;14.40;57.69
80323;BME280;69636;52.372;13.610;2023-05-31T05:19:43;102239.44;;;14.41;58.20
80323;BME280;69636;52.372;13.610;2023-05-31T05:22:11;102238.69;;;14.39;56.98
80323;BME280;69636;52.372;13.610;2023-05-31T05:24:38;102248.25;;;14.60;57.30
80323;BME280;69636;52.372;13.610;2023-05-31T05:27:06;102241.50;;;14.66;56.59
80323;BME280;69636;52.372;13.610;2023-05-31T05:29:33;102243.66;;;14.43;56.69
80323;BME280;69636;52.372;13.610;2023-05-31T05:32:00;102245.41;;;14.81;55.67
80323;BME280;69636;52.372;13.610;2023-05-31T05:34:28;102247.91;;;14.92;54.83
80323;BME280;69636;52.372;13.610;2023-05-31T05:36:56;102240.38;;;14.59;56.04
80323;BME280;69636;52.372;13.610;2023-05-31T05:39:24;102241.22;;;14.69;55.67
80323;BME280;69636;52.372;13.610;2023-05-31T05:41:51;102237.28;;;14.64;55.88
80323;BME280;69636;52.372;13.610;2023-05-31T05:44:18;102234.59;;;14.73;55.51
80323;BME280;69636;52.372;13.610;2023-05-31T05:46:45;102241.78;;;14.73;55.89
80323;BME280;69636;52.372;13.610;2023-05-31T05:49:15;102232.03;;;15.28;53.76
80323;BME280;69636;52.372;13.610;2023-05-31T05:51:45;102239.25;;;15.45;53.61
80323;BME280;69636;52.372;13.610;2023-05-31T05:54:14;102243.84;;;15.25;54.21
80323;BME280;69636;52.372;13.610;2023-05-31T05:56:41;102242.59;;;15.20;54.78
80323;BME280;69636;52.372;13.610;2023-05-31T05:59:08;102244.22;;;15.68;54.33
80323;BME280;69636;52.372;13.610;2023-05-31T06:01:36;102232.22;;;15.89;52.52
80323;BME280;69636;52.372;13.610;2023-05-31T06:04:03;102243.91;;;15.71;53.72
80323;BME280;69636;52.372;13.610;2023-05-31T06:06:30;102245.00;;;15.78;53.04
80323;BME280;69636;52.372;13.610;2023-05-31T06:08:58;102238.91;;;16.03;52.49
80323;BME280;69636;52.372;13.610;2023-05-31T06:11:26;102242.47;;;16.47;50.90
80323;BME280;69636;52.372;13.610;2023-05-31T06:13:54;102235.06;;;16.23;51.70
80323;BME280;69636;52.372;13.610;2023-05-31T06:16:21;102238.25;;;16.45;50.74
80323;BME280;69636;52.372;13.610;2023-05-31T06:18:49;102241.78;;;16.45;51.45
80323;BME280;69636;52.372;13.610;2023-05-31T06:21:16;102233.97;;;16.52;51.84
80323;BME280;69636;52.372;13.610;2023-05-31T06:23:43;102238.31;;;16.96;50.53
80323;BME280;69636;52.372;13.610;2023-05-31T06:26:11;102236.47;;;16.97;50.98
80323;BME280;69636;52.372;13.610;2023-05-31T06:28:39;102240.41;;;17.11;50.73
80323;BME280;69636;52.372;13.610;2023-05-31T06:31:07;102238.78;;;16.92;51.24
80323;BME280;69636;52.372;13.610;2023-05-31T06:33:34;102238.69;;;17.44;48.99
80323;BME280;69636;52.372;13.610;2023-05-31T06:36:02;102231.16;;;17.47;49.59
80323;BME280;69636;52.372;13.610;2023-05-31T06:38:29;102235.84;;;17.37;50.31
80323;BME280;69636;52.372;13.610;2023-05-31T06:40:56;102241.78;;;17.23;51.59
80323;BME280;69636;52.372;13.610;2023-05-31T06:43:24;102239.28;;;17.21;51.49
80323;BME280;69636;52.372;13.610;2023-05-31T06:45:54;102239.38;;;17.46;50.23
80323;BME280;69636;52.372;13.610;2023-05-31T06:48:21;102236.75;;;17.62;50.21
80323;BME280;69636;52.372;13.610;2023-05-31T06:50:49;102227.28;;;18.00;48.54
80323;BME280;69636;52.372;13.610;2023-05-31T06:53:16;102228.31;;;17.91;49.18
80323;BME280;69636;52.372;13.610;2023-05-31T06:55:43;102228.63;;;17.96;49.22
80323;BME280;69636;52.372;13.610;2023-05-31T06:58:14;102229.28;;;17.98;49.00
80323;BME280;69636;52.372;13.610;2023-05-31T07:00:41;102227.31;;;18.65;47.70
80323;BME280;69636;52.372;13.610;2023-05-31T07:03:10;102229.31;;;18.47;47.19
80323;BME280;69636;52.372;13.610;2023-05-31T07:05:37;102225.63;;;18.56;47.43
80323;BME280;69636;52.372;13.610;2023-05-31T07:08:05;102230.13;;;18.88;46.48
80323;BME280;69636;52.372;13.610;2023-05-31T07:10:32;102228.81;;;19.23;45.45
80323;BME280;69636;52.372;13.610;2023-05-31T07:12:59;102222.16;;;19.11;46.02
80323;BME280;69636;52.372;13.610;2023-05-31T07:15:26;102215.03;;;19.26;45.05
80323;BME280;69636;52.372;13.610;2023-05-31T07:17:54;102217.41;;;19.21;45.83
80323;BME280;69636;52.372;13.610;2023-05-31T07:20:23;102216.34;;;19.30;46.21
80323;BME280;69636;52.372;13.610;2023-05-31T07:22:50;102218.31;;;19.44;45.29
80323;BME280;69636;52.372;13.610;2023-05-31T07:25:19;102217.47;;;19.05;45.97
80323;BME280;69636;52.372;13.610;2023-05-31T07:27:47;102214.22;;;18.70;46.38
80323;BME280;69636;52.372;13.610;2023-05-31T07:30:14;102209.81;;;18.53;46.86
80323;BME280;69636;52.372;13.610;2023-05-31T07:32:42;102213.88;;;18.24;47.53
80323;BME280;69636;52.372;13.610;2023-05-31T07:35:09;102209.50;;;18.31;47.89
80323;BME280;69636;52.372;13.610;2023-05-31T07:37:38;102196.91;;;18.32;47.10
80323;BME280;69636;52.372;13.610;2023-05-31T07:40:08;102198.41;;;18.26;47.10
80323;BME280;69636;52.372;13.610;2023-05-31T07:42:35;102185.94;;;18.50;47.06
80323;BME280;69636;52.372;13.610;2023-05-31T07:45:04;102191.63;;;18.79;45.71
80323;BME280;69636;52.372;13.610;2023-05-31T07:47:32;102189.56;;;18.97;45.01
80323;BME280;69636;52.372;13.610;2023-05-31T07:49:59;102184.97;;;19.14;44.80
80323;BME280;69636;52.372;13.610;2023-05-31T07:52:28;102184.34;;;19.35;45.22
80323;BME280;69636;52.372;13.610;2023-05-31T07:54:56;102189.47;;;19.61;45.60
80323;BME280;69636;52.372;13.610;2023-05-31T07:57:23;102186.59;;;20.08;44.26
80323;BME280;69636;52.372;13.610;2023-05-31T07:59:50;102183.31;;;19.98;44.97
80323;BME280;69636;52.372;13.610;2023-05-31T08:02:18;102183.97;;;20.23;43.19
80323;BME280;69636;52.372;13.610;2023-05-31T08:04:45;102184.59;;;20.48;43.10
80323;BME280;69636;52.372;13.610;2023-05-31T08:07:13;102187.31;;;20.62;41.57
80323;BME280;69636;52.372;13.610;2023-05-31T08:09:40;102187.59;;;20.82;40.90
80323;BME280;69636;52.372;13.610;2023-05-31T08:12:10;102191.88;;;20.91;40.15
80323;BME280;69636;52.372;13.610;2023-05-31T08:14:38;102186.16;;;20.42;40.39
80323;BME280;69636;52.372;13.610;2023-05-31T08:17:05;102188.06;;;20.33;41.31
80323;BME280;69636;52.372;13.610;2023-05-31T08:19:33;102177.16;;;20.27;41.00
80323;BME280;69636;52.372;13.610;2023-05-31T08:22:00;102178.19;;;20.63;42.31
80323;BME280;69636;52.372;13.610;2023-05-31T08:24:28;102177.25;;;21.15;40.97
80323;BME280;69636;52.372;13.610;2023-05-31T08:26:55;102183.56;;;21.37;38.43
80323;BME280;69636;52.372;13.610;2023-05-31T08:29:24;102176.94;;;21.54;37.16
80323;BME280;69636;52.372;13.610;2023-05-31T08:31:51;102177.19;;;22.23;35.88
80323;BME280;69636;52.372;13.610;2023-05-31T08:34:18;102172.84;;;22.78;34.53
80323;BME280;69636;52.372;13.610;2023-05-31T08:36:46;102178.63;;;23.57;33.37
80323;BME280;69636;52.372;13.610;2023-05-31T08:39:13;102182.41;;;23.83;34.03
80323;BME280;69636;52.372;13.610;2023-05-31T08:41:47;102179.34;;;24.39;31.57
80323;BME280;69636;52.372;13.610;2023-05-31T08:44:19;102178.84;;;24.75;29.93
80323;BME280;69636;52.372;13.610;2023-05-31T08:46:49;102178.06;;;24.67;29.81
80323;BME280;69636;52.372;13.610;2023-05-31T08:49:17;102180.00;;;25.69;27.80
80323;BME280;69636;52.372;13.610;2023-05-31T08:51:48;102176.03;;;25.65;26.86
80323;BME280;69636;52.372;13.610;2023-05-31T08:54:16;102176.06;;;26.83;25.32
80323;BME280;69636;52.372;13.610;2023-05-31T08:56:44;102175.41;;;27.54;24.48
80323;BME280;69636;52.372;13.610;2023-05-31T08:59:15;102173.75;;;26.44;25.82
80323;BME280;69636;52.372;13.610;2023-05-31T09:01:44;102169.22;;;26.99;24.81
80323;BME280;69636;52.372;13.610;2023-05-31T09:04:15;102169.06;;;26.51;25.85
80323;BME280;69636;52.372;13.610;2023-05-31T09:06:43;102165.88;;;27.45;25.16
80323;BME280;69636;52.372;13.610;2023-05-31T09:09:10;102156.75;;;27.69;23.92
80323;BME280;69636;52.372;13.610;2023-05-31T09:11:38;102157.25;;;27.90;23.79
80323;BME280;69636;52.372;13.610;2023-05-31T09:14:07;102158.66;;;27.21;23.94
80323;BME280;69636;52.372;13.610;2023-05-31T09:16:35;102152.97;;;26.24;25.94
80323;BME280;69636;52.372;13.610;2023-05-31T09:19:03;102149.28;;;24.40;26.19
80323;BME280;69636;52.372;13.610;2023-05-31T09:21:37;102148.00;;;24.49;27.26
80323;BME280;69636;52.372;13.610;2023-05-31T09:24:06;102151.16;;;24.40;27.99
80323;BME280;69636;52.372;13.610;2023-05-31T09:26:33;102141.56;;;25.15;25.60
80323;BME280;69636;52.372;13.610;2023-05-31T09:29:01;102142.19;;;24.26;28.45
80323;BME280;69636;52.372;13.610;2023-05-31T09:31:28;102141.72;;;24.62;28.07
80323;BME280;69636;52.372;13.610;2023-05-31T09:33:56;102144.16;;;24.83;27.76
80323;BME280;69636;52.372;13.610;2023-05-31T09:36:24;102134.56;;;24.74;27.88
80323;BME280;69636;52.372;13.610;2023-05-31T09:38:58;102136.06;;;25.59;26.48
80323;BME280;69636;52.372;13.610;2023-05-31T09:41:26;102128.97;;;25.90;26.11
80323;BME280;69636;52.372;13.610;2023-05-31T09:43:54;102125.97;;;26.23;25.82
80323;BME280;69636;52.372;13.610;2023-05-31T09:46:22;102125.03;;;26.35;26.36
80323;BME280;69636;52.372;13.610;2023-05-31T09:48:59;102114.25;;;26.22;26.04
80323;BME280;69636;52.372;13.610;2023-05-31T09:51:27;102115.91;;;26.23;26.14
80323;BME280;69636;52.372;13.610;2023-05-31T09:53:56;102112.03;;;27.41;23.68
80323;BME280;69636;52.372;13.610;2023-05-31T09:56:24;102110.69;;;26.65;24.28
80323;BME280;69636;52.372;13.610;2023-05-31T09:58:52;102116.94;;;27.50;23.93
80323;BME280;69636;52.372;13.610;2023-05-31T10:01:22;102114.28;;;27.44;24.76
80323;BME280;69636;52.372;13.610;2023-05-31T10:03:50;102110.75;;;26.77;24.59
80323;BME280;69636;52.372;13.610;2023-05-31T10:06:18;102108.25;;;26.93;24.41
80323;BME280;69636;52.372;13.610;2023-05-31T10:08:46;102105.16;;;28.15;22.41
80323;BME280;69636;52.372;13.610;2023-05-31T10:11:17;102096.34;;;27.66;23.66
80323;BME280;69636;52.372;13.610;2023-05-31T10:13:44;102102.72;;;27.60;24.22
80323;BME280;69636;52.372;13.610;2023-05-31T10:16:15;102093.47;;;27.61;24.60
80323;BME280;69636;52.372;13.610;2023-05-31T10:18:44;102092.00;;;28.00;23.45
80323;BME280;69636;52.372;13.610;2023-05-31T10:21:16;102089.88;;;28.02;23.19
80323;BME280;69636;52.372;13.610;2023-05-31T10:23:45;102083.00;;;28.23;22.30
80323;BME280;69636;52.372;13.610;2023-05-31T10:26:18;102077.78;;;28.21;22.47
80323;BME280;69636;52.372;13.610;2023-05-31T10:28:50;102080.38;;;26.91;24.35
80323;BME280;69636;52.372;13.610;2023-05-31T10:31:20;102083.91;;;26.98;24.18
80323;BME280;69636;52.372;13.610;2023-05-31T10:33:53;102082.22;;;26.97;24.38
80323;BME280;69636;52.372;13.610;2023-05-31T10:36:21;102080.78;;;26.40;25.54
80323;BME280;69636;52.372;13.610;2023-05-31T10:38:54;102071.41;;;26.73;24.98
80323;BME280;69636;52.372;13.610;2023-05-31T10:43:51;102068.72;;;27.02;24.25
80323;BME280;69636;52.372;13.610;2023-05-31T10:46:25;102068.63;;;27.39;24.75
80323;BME280;69636;52.372;13.610;2023-05-31T10:48:54;102068.59;;;26.97;23.69
80323;BME280;69636;52.372;13.610;2023-05-31T10:51:37;102068.47;;;27.22;23.64
80323;BME280;69636;52.372;13.610;2023-05-31T10:54:05;102063.41;;;27.79;23.40
80323;BME280;69636;52.372;13.610;2023-05-31T10:56:32;102060.97;;;27.18;24.19
80323;BME280;69636;52.372;13.610;2023-05-31T10:59:08;102053.50;;;26.47;25.49
80323;BME280;69636;52.372;13.610;2023-05-31T11:01:36;102057.97;;;26.16;25.77
80323;BME280;69636;52.372;13.610;2023-05-31T11:04:18;102055.63;;;26.45;25.81
80323;BME280;69636;52.372;13.610;2023-05-31T11:06:47;102043.91;;;25.20;26.57
80323;BME280;69636;52.372;13.610;2023-05-31T11:09:14;102040.34;;;25.76;26.09
80323;BME280;69636;52.372;13.610;2023-05-31T11:11:45;102046.34;;;26.27;25.71
80323;BME280;69636;52.372;13.610;2023-05-31T11:14:26;102041.22;;;26.19;25.24
80323;BME280;69636;52.372;13.610;2023-05-31T11:17:12;102033.94;;;26.13;24.70
80323;BME280;69636;52.372;13.610;2023-05-31T11:19:40;102040.75;;;25.79;25.91
80323;BME280;69636;52.372;13.610;2023-05-31T11:22:09;102040.06;;;25.59;25.85
80323;BME280;69636;52.372;13.610;2023-05-31T11:24:38;102044.28;;;25.55;25.39
80323;BME280;69636;52.372;13.610;2023-05-31T11:27:11;102035.09;;;25.81;25.55
80323;BME280;69636;52.372;13.610;2023-05-31T11:29:58;102038.59;;;25.56;25.06
80323;BME280;69636;52.372;13.610;2023-05-31T11:32:54;102033.56;;;25.66;25.69
80323;BME280;69636;52.372;13.610;2023-05-31T11:35:22;102030.38;;;25.69;24.62
80323;BME280;69636;52.372;13.610;2023-05-31T11:37:59;102026.00;;;25.68;25.83
80323;BME280;69636;52.372;13.610;2023-05-31T11:40:28;102026.75;;;24.75;26.00
80323;BME280;69636;52.372;13.610;2023-05-31T11:43:02;102023.59;;;24.20;26.76
80323;BME280;69636;52.372;13.610;2023-05-31T11:45:34;102013.13;;;24.88;26.21
80323;BME280;69636;52.372;13.610;2023-05-31T11:48:14;102012.38;;;25.44;26.12
80323;BME280;69636;52.372;13.610;2023-05-31T11:50:44;102016.31;;;26.16;25.06
80323;BME280;69636;52.372;13.610;2023-05-31T11:53:13;102016.56;;;26.69;24.84
80323;BME280;69636;52.372;13.610;2023-05-31T11:55:44;102017.75;;;26.73;24.67
80323;BME280;69636;52.372;13.610;2023-05-31T11:58:12;102017.03;;;26.48;23.38
80323;BME280;69636;52.372;13.610;2023-05-31T12:00:43;102016.63;;;27.11;23.03
80323;BME280;69636;52.372;13.610;2023-05-31T12:03:14;102001.41;;;27.56;23.01
80323;BME280;69636;52.372;13.610;2023-05-31T12:05:44;101997.97;;;28.19;22.60
80323;BME280;69636;52.372;13.610;2023-05-31T12:08:16;101999.81;;;28.54;22.02
80323;BME280;69636;52.372;13.610;2023-05-31T12:10:43;102004.06;;;28.21;21.45
80323;BME280;69636;52.372;13.610;2023-05-31T12:13:11;101995.22;;;27.26;22.78
80323;BME280;69636;52.372;13.610;2023-05-31T12:15:39;101992.44;;;28.02;22.25
80323;BME280;69636;52.372;13.610;2023-05-31T12:18:08;101992.91;;;27.99;21.95
80323;BME280;69636;52.372;13.610;2023-05-31T12:20:36;101985.72;;;28.74;20.88
80323;BME280;69636;52.372;13.610;2023-05-31T12:23:10;101986.53;;;28.46;21.80
80323;BME280;69636;52.372;13.610;2023-05-31T12:25:43;101990.00;;;28.69;21.12
80323;BME280;69636;52.372;13.610;2023-05-31T12:28:11;101986.25;;;27.95;21.74
80323;BME280;69636;52.372;13.610;2023-05-31T12:30:42;101979.13;;;28.29;21.45
80323;BME280;69636;52.372;13.610;2023-05-31T12:33:15;101980.75;;;28.07;21.13
80323;BME280;69636;52.372;13.610;2023-05-31T12:35:44;101966.72;;;28.67;20.79
80323;BME280;69636;52.372;13.610;2023-05-31T12:38:12;101974.31;;;28.36;20.06
80323;BME280;69636;52.372;13.610;2023-05-31T12:40:41;101968.97;;;28.82;20.59
80323;BME280;69636;52.372;13.610;2023-05-31T12:43:10;101962.03;;;28.22;20.60
80323;BME280;69636;52.372;13.610;2023-05-31T12:45:39;101963.25;;;27.91;21.36
80323;BME280;69636;52.372;13.610;2023-05-31T12:48:07;101971.09;;;27.76;21.90
80323;BME280;69636;52.372;13.610;2023-05-31T12:50:42;101961.19;;;28.10;21.43
80323;BME280;69636;52.372;13.610;2023-05-31T12:53:10;101963.41;;;28.65;20.44
80323;BME280;69636;52.372;13.610;2023-05-31T12:55:38;101959.81;;;28.76;19.71
80323;BME280;69636;52.372;13.610;2023-05-31T12:58:05;101959.69;;;28.83;19.20
80323;BME280;69636;52.372;13.610;2023-05-31T13:00:33;101942.72;;;28.41;19.53